sensor_id;sensor_type;location;lat;lon;timestamp;P1;durP1;ratioP1;P2;durP2;ratioP2
6519;SDS011;3293;51.690;5.982;2023-03-23T00:03:01;5.87;;;4.30;;
6519;SDS011;3293;51.690;5.982;2023-03-23T00:08:01;6.37;;;4.17;;
6519;SDS011;3293;51.690;5.982;2023-03-23T00:13:02;5.77;;;4.23;;
6519;SDS011;3293;51.690;5.982;2023-03-23T00:18:04;5.20;;;3.90;;
6519;SDS011;3293;51.690;5.982;2023-03-23T00:23:05;5.37;;;4.20;;
6519;SDS011;3293;51.690;5.982;2023-03-23T00:28:06;4.30;;;3.90;;
6519;SDS011;3293;51.690;5.982;2023-03-23T00:33:07;7.07;;;4.07;;
6519;SDS011;3293;51.690;5.982;2023-03-23T00:38:08;5.60;;;4.40;;
6519;SDS011;3293;51.690;5.982;2023-03-23T00:43:08;5.77;;;4.10;;
6519;SDS011;3293;51.690;5.982;2023-03-23T00:48:13;6.87;;;4.63;;
6519;SDS011;3293;51.690;5.982;2023-03-23T00:53:13;6.00;;;4.47;;
6519;SDS011;3293;51.690;5.982;2023-03-23T00:58:13;6.50;;;4.33;;
6519;SDS011;3293;51.690;5.982;2023-03-23T01:03:14;7.03;;;4.30;;
6519;SDS011;3293;51.690;5.982;2023-03-23T01:08:17;7.20;;;4.17;;
6519;SDS011;3293;51.690;5.982;2023-03-23T01:13:18;6.83;;;4.80;;
6519;SDS011;3293;51.690;5.982;2023-03-23T01:18:18;6.07;;;4.07;;
6519;SDS011;3293;51.690;5.982;2023-03-23T01:23:17;4.60;;;4.03;;
6519;SDS011;3293;51.690;5.982;2023-03-23T01:28:17;5.50;;;4.67;;
6519;SDS011;3293;51.690;5.982;2023-03-23T01:33:17;6.63;;;4.63;;
6519;SDS011;3293;51.690;5.982;2023-03-23T01:38:17;4.60;;;4.20;;
6519;SDS011;3293;51.690;5.982;2023-03-23T01:43:17;6.57;;;4.63;;
6519;SDS011;3293;51.690;5.982;2023-03-23T01:48:18;6.80;;;4.93;;
6519;SDS011;3293;51.690;5.982;2023-03-23T01:53:22;10.93;;;4.83;;
6519;SDS011;3293;51.690;5.982;2023-03-23T01:58:27;7.90;;;4.63;;
6519;SDS011;3293;51.690;5.982;2023-03-23T02:03:31;5.00;;;4.47;;
6519;SDS011;3293;51.690;5.982;2023-03-23T02:08:33;6.23;;;5.03;;
6519;SDS011;3293;51.690;5.982;2023-03-23T02:13:35;4.97;;;4.33;;
6519;SDS011;3293;51.690;5.982;2023-03-23T02:23:53;5.00;;;4.50;;
6519;SDS011;3293;51.690;5.982;2023-03-23T02:34:24;5.00;;;4.47;;
6519;SDS011;3293;51.690;5.982;2023-03-23T02:39:27;5.50;;;4.73;;
6519;SDS011;3293;51.690;5.982;2023-03-23T02:44:32;7.53;;;4.60;;
6519;SDS011;3293;51.690;5.982;2023-03-23T02:49:34;4.80;;;4.40;;
6519;SDS011;3293;51.690;5.982;2023-03-23T02:54:36;6.53;;;4.87;;
6519;SDS011;3293;51.690;5.982;2023-03-23T02:59:36;7.90;;;4.40;;
6519;SDS011;3293;51.690;5.982;2023-03-23T03:04:36;4.70;;;4.17;;
6519;SDS011;3293;51.690;5.982;2023-03-23T03:09:48;6.60;;;4.90;;
6519;SDS011;3293;51.690;5.982;2023-03-23T03:20:15;5.93;;;4.70;;
6519;SDS011;3293;51.690;5.982;2023-03-23T03:25:15;6.93;;;4.23;;
6519;SDS011;3293;51.690;5.982;2023-03-23T03:30:16;5.27;;;4.77;;
6519;SDS011;3293;51.690;5.982;2023-03-23T03:35:21;7.83;;;4.40;;
6519;SDS011;3293;51.690;5.982;2023-03-23T03:40:22;7.27;;;4.70;;
6519;SDS011;3293;51.690;5.982;2023-03-23T03:45:23;5.93;;;4.83;;
6519;SDS011;3293;51.690;5.982;2023-03-23T03:50:23;5.10;;;4.17;;
6519;SDS011;3293;51.690;5.982;2023-03-23T03:55:23;5.10;;;4.30;;
6519;SDS011;3293;51.690;5.982;2023-03-23T04:00:23;7.23;;;4.43;;
6519;SDS011;3293;51.690;5.982;2023-03-23T04:05:24;8.47;;;4.80;;
6519;SDS011;3293;51.690;5.982;2023-03-23T04:10:24;7.73;;;5.03;;
6519;SDS011;3293;51.690;5.982;2023-03-23T04:15:24;5.57;;;4.63;;
6519;SDS011;3293;51.690;5.982;2023-03-23T04:20:24;7.90;;;4.70;;
6519;SDS011;3293;51.690;5.982;2023-03-23T04:25:24;5.57;;;4.57;;
6519;SDS011;3293;51.690;5.982;2023-03-23T04:30:24;7.17;;;4.30;;
6519;SDS011;3293;51.690;5.982;2023-03-23T04:35:26;6.87;;;4.50;;
6519;SDS011;3293;51.690;5.982;2023-03-23T04:40:28;6.97;;;3.77;;
6519;SDS011;3293;51.690;5.982;2023-03-23T04:45:28;8.70;;;3.97;;
6519;SDS011;3293;51.690;5.982;2023-03-23T04:50:28;7.23;;;3.97;;
6519;SDS011;3293;51.690;5.982;2023-03-23T04:55:34;7.57;;;3.93;;
6519;SDS011;3293;51.690;5.982;2023-03-23T05:00:35;4.43;;;3.33;;
6519;SDS011;3293;51.690;5.982;2023-03-23T05:05:35;7.27;;;3.33;;
6519;SDS011;3293;51.690;5.982;2023-03-23T05:10:35;10.80;;;3.97;;
6519;SDS011;3293;51.690;5.982;2023-03-23T05:15:36;6.63;;;3.40;;
6519;SDS011;3293;51.690;5.982;2023-03-23T05:20:36;8.30;;;2.87;;
6519;SDS011;3293;51.690;5.982;2023-03-23T05:25:36;8.70;;;3.10;;
6519;SDS011;3293;51.690;5.982;2023-03-23T05:30:40;11.03;;;3.00;;
6519;SDS011;3293;51.690;5.982;2023-03-23T05:35:40;7.03;;;3.10;;
6519;SDS011;3293;51.690;5.982;2023-03-23T05:40:41;6.53;;;2.80;;
6519;SDS011;3293;51.690;5.982;2023-03-23T05:45:40;9.17;;;3.30;;
6519;SDS011;3293;51.690;5.982;2023-03-23T05:50:41;7.67;;;3.20;;
6519;SDS011;3293;51.690;5.982;2023-03-23T05:55:41;7.00;;;3.40;;
6519;SDS011;3293;51.690;5.982;2023-03-23T06:00:41;5.40;;;3.20;;
6519;SDS011;3293;51.690;5.982;2023-03-23T06:05:44;7.23;;;3.20;;
6519;SDS011;3293;51.690;5.982;2023-03-23T06:10:44;4.70;;;3.00;;
6519;SDS011;3293;51.690;5.982;2023-03-23T06:15:44;6.53;;;3.30;;
6519;SDS011;3293;51.690;5.982;2023-03-23T06:20:45;9.83;;;3.70;;
6519;SDS011;3293;51.690;5.982;2023-03-23T06:25:46;8.47;;;3.70;;
6519;SDS011;3293;51.690;5.982;2023-03-23T06:30:46;7.57;;;3.70;;
6519;SDS011;3293;51.690;5.982;2023-03-23T06:35:46;6.27;;;3.20;;
6519;SDS011;3293;51.690;5.982;2023-03-23T06:40:51;10.77;;;3.83;;
6519;SDS011;3293;51.690;5.982;2023-03-23T06:45:51;7.50;;;3.87;;
6519;SDS011;3293;51.690;5.982;2023-03-23T06:50:51;7.40;;;3.77;;
6519;SDS011;3293;51.690;5.982;2023-03-23T06:55:51;6.10;;;3.67;;
6519;SDS011;3293;51.690;5.982;2023-03-23T07:00:55;6.53;;;3.27;;
6519;SDS011;3293;51.690;5.982;2023-03-23T07:05:58;10.67;;;3.40;;
6519;SDS011;3293;51.690;5.982;2023-03-23T07:10:59;8.97;;;3.63;;
6519;SDS011;3293;51.690;5.982;2023-03-23T07:15:59;8.00;;;3.67;;
6519;SDS011;3293;51.690;5.982;2023-03-23T07:20:59;15.13;;;3.87;;
6519;SDS011;3293;51.690;5.982;2023-03-23T07:25:59;10.77;;;3.60;;
6519;SDS011;3293;51.690;5.982;2023-03-23T07:31:00;7.10;;;3.50;;
6519;SDS011;3293;51.690;5.982;2023-03-23T07:36:00;6.67;;;3.30;;
6519;SDS011;3293;51.690;5.982;2023-03-23T07:41:00;8.93;;;2.97;;
6519;SDS011;3293;51.690;5.982;2023-03-23T07:46:01;10.67;;;3.47;;
6519;SDS011;3293;51.690;5.982;2023-03-23T07:51:01;10.37;;;3.90;;
6519;SDS011;3293;51.690;5.982;2023-03-23T07:56:01;8.07;;;3.07;;
6519;SDS011;3293;51.690;5.982;2023-03-23T08:01:02;8.40;;;3.17;;
6519;SDS011;3293;51.690;5.982;2023-03-23T08:06:03;4.27;;;2.53;;
6519;SDS011;3293;51.690;5.982;2023-03-23T08:11:04;6.13;;;3.00;;
6519;SDS011;3293;51.690;5.982;2023-03-23T08:16:04;5.93;;;2.67;;
6519;SDS011;3293;51.690;5.982;2023-03-23T08:21:05;4.73;;;2.07;;
6519;SDS011;3293;51.690;5.982;2023-03-23T08:26:08;4.87;;;2.50;;
6519;SDS011;3293;51.690;5.982;2023-03-23T08:31:09;4.23;;;1.90;;
6519;SDS011;3293;51.690;5.982;2023-03-23T08:36:11;4.03;;;1.97;;
6519;SDS011;3293;51.690;5.982;2023-03-23T08:41:11;2.70;;;1.63;;
6519;SDS011;3293;51.690;5.982;2023-03-23T08:46:12;2.70;;;2.03;;
6519;SDS011;3293;51.690;5.982;2023-03-23T08:51:12;2.07;;;1.93;;
6519;SDS011;3293;51.690;5.982;2023-03-23T08:56:12;3.27;;;2.20;;
6519;SDS011;3293;51.690;5.982;2023-03-23T09:01:12;3.53;;;2.03;;
6519;SDS011;3293;51.690;5.982;2023-03-23T09:06:13;2.83;;;1.90;;
6519;SDS011;3293;51.690;5.982;2023-03-23T09:11:13;3.50;;;2.10;;
6519;SDS011;3293;51.690;5.982;2023-03-23T09:16:13;2.40;;;1.90;;
6519;SDS011;3293;51.690;5.982;2023-03-23T09:21:13;3.13;;;2.00;;
6519;SDS011;3293;51.690;5.982;2023-03-23T09:26:14;2.20;;;2.00;;
6519;SDS011;3293;51.690;5.982;2023-03-23T09:31:14;3.27;;;1.97;;
6519;SDS011;3293;51.690;5.982;2023-03-23T09:36:15;3.63;;;1.90;;
6519;SDS011;3293;51.690;5.982;2023-03-23T09:41:25;3.83;;;2.00;;
6519;SDS011;3293;51.690;5.982;2023-03-23T09:51:57;4.33;;;1.57;;
6519;SDS011;3293;51.690;5.982;2023-03-23T09:57:03;1.80;;;1.63;;
6519;SDS011;3293;51.690;5.982;2023-03-23T10:02:12;6.47;;;2.20;;
6519;SDS011;3293;51.690;5.982;2023-03-23T10:07:19;4.87;;;2.20;;
6519;SDS011;3293;51.690;5.982;2023-03-23T10:17:46;4.40;;;1.90;;
6519;SDS011;3293;51.690;5.982;2023-03-23T10:28:05;7.00;;;2.40;;
6519;SDS011;3293;51.690;5.982;2023-03-23T10:33:16;4.57;;;2.50;;
6519;SDS011;3293;51.690;5.982;2023-03-23T10:38:23;5.17;;;2.20;;
6519;SDS011;3293;51.690;5.982;2023-03-23T10:43:26;5.33;;;2.70;;
6519;SDS011;3293;51.690;5.982;2023-03-23T10:53:37;4.43;;;2.40;;
6519;SDS011;3293;51.690;5.982;2023-03-23T10:58:43;3.07;;;2.20;;
6519;SDS011;3293;51.690;5.982;2023-03-23T11:03:46;5.30;;;2.50;;
6519;SDS011;3293;51.690;5.982;2023-03-23T11:08:57;3.87;;;2.40;;
6519;SDS011;3293;51.690;5.982;2023-03-23T11:14:01;6.50;;;2.17;;
6519;SDS011;3293;51.690;5.982;2023-03-23T11:19:13;5.90;;;2.30;;
6519;SDS011;3293;51.690;5.982;2023-03-23T11:24:14;3.80;;;2.13;;
6519;SDS011;3293;51.690;5.982;2023-03-23T11:29:18;6.43;;;2.50;;
6519;SDS011;3293;51.690;5.982;2023-03-23T11:34:26;4.90;;;2.17;;
6519;SDS011;3293;51.690;5.982;2023-03-23T11:39:34;5.50;;;2.60;;
6519;SDS011;3293;51.690;5.982;2023-03-23T11:44:46;3.07;;;1.87;;
6519;SDS011;3293;51.690;5.982;2023-03-23T11:55:10;6.97;;;2.70;;
6519;SDS011;3293;51.690;5.982;2023-03-23T12:00:13;4.80;;;2.47;;
6519;SDS011;3293;51.690;5.982;2023-03-23T12:10:31;6.50;;;2.53;;
6519;SDS011;3293;51.690;5.982;2023-03-23T12:26:06;5.23;;;2.40;;
6519;SDS011;3293;51.690;5.982;2023-03-23T12:36:50;5.67;;;2.20;;
6519;SDS011;3293;51.690;5.982;2023-03-23T12:47:44;2.63;;;2.10;;
6519;SDS011;3293;51.690;5.982;2023-03-23T12:53:05;3.33;;;2.35;;
6519;SDS011;3293;51.690;5.982;2023-03-23T12:58:16;5.87;;;2.13;;
6519;SDS011;3293;51.690;5.982;2023-03-23T13:03:40;6.87;;;2.30;;
6519;SDS011;3293;51.690;5.982;2023-03-23T13:08:49;6.33;;;2.50;;
6519;SDS011;3293;51.690;5.982;2023-03-23T13:14:21;8.93;;;2.73;;
6519;SDS011;3293;51.690;5.982;2023-03-23T13:25:00;8.53;;;2.50;;
6519;SDS011;3293;51.690;5.982;2023-03-23T13:30:03;8.30;;;2.70;;
6519;SDS011;3293;51.690;5.982;2023-03-23T13:35:04;6.18;;;2.67;;
6519;SDS011;3293;51.690;5.982;2023-03-23T13:45:22;5.32;;;2.50;;
6519;SDS011;3293;51.690;5.982;2023-03-23T13:50:43;7.30;;;2.63;;
6519;SDS011;3293;51.690;5.982;2023-03-23T13:56:17;6.32;;;2.88;;
6519;SDS011;3293;51.690;5.982;2023-03-23T14:01:19;7.65;;;2.95;;
6519;SDS011;3293;51.690;5.982;2023-03-23T14:06:35;7.28;;;2.88;;
6519;SDS011;3293;51.690;5.982;2023-03-23T14:11:45;4.45;;;2.45;;
6519;SDS011;3293;51.690;5.982;2023-03-23T14:16:49;5.37;;;2.60;;
6519;SDS011;3293;51.690;5.982;2023-03-23T14:21:53;10.53;;;3.63;;
6519;SDS011;3293;51.690;5.982;2023-03-23T14:32:08;5.53;;;3.07;;
6519;SDS011;3293;51.690;5.982;2023-03-23T14:37:13;9.40;;;3.20;;
6519;SDS011;3293;51.690;5.982;2023-03-23T14:42:16;8.83;;;3.87;;
6519;SDS011;3293;51.690;5.982;2023-03-23T14:47:20;7.30;;;3.23;;
6519;SDS011;3293;51.690;5.982;2023-03-23T14:52:21;5.87;;;3.00;;
6519;SDS011;3293;51.690;5.982;2023-03-23T15:02:29;7.70;;;3.40;;
6519;SDS011;3293;51.690;5.982;2023-03-23T15:07:37;8.10;;;3.20;;
6519;SDS011;3293;51.690;5.982;2023-03-23T15:12:38;6.40;;;2.90;;
6519;SDS011;3293;51.690;5.982;2023-03-23T15:17:38;7.40;;;3.10;;
6519;SDS011;3293;51.690;5.982;2023-03-23T15:22:44;5.90;;;3.50;;
6519;SDS011;3293;51.690;5.982;2023-03-23T15:27:54;7.00;;;3.03;;
6519;SDS011;3293;51.690;5.982;2023-03-23T15:33:08;6.43;;;3.03;;
6519;SDS011;3293;51.690;5.982;2023-03-23T15:43:32;10.13;;;3.23;;
6519;SDS011;3293;51.690;5.982;2023-03-23T15:53:59;11.13;;;3.47;;
6519;SDS011;3293;51.690;5.982;2023-03-23T15:59:00;6.43;;;3.57;;
6519;SDS011;3293;51.690;5.982;2023-03-23T16:04:04;6.23;;;3.50;;
6519;SDS011;3293;51.690;5.982;2023-03-23T16:09:05;7.80;;;3.67;;
6519;SDS011;3293;51.690;5.982;2023-03-23T16:14:06;9.60;;;4.23;;
6519;SDS011;3293;51.690;5.982;2023-03-23T16:19:07;8.77;;;4.07;;
6519;SDS011;3293;51.690;5.982;2023-03-23T16:24:10;6.67;;;4.17;;
6519;SDS011;3293;51.690;5.982;2023-03-23T16:29:11;6.87;;;4.30;;
6519;SDS011;3293;51.690;5.982;2023-03-23T16:34:12;7.10;;;4.07;;
6519;SDS011;3293;51.690;5.982;2023-03-23T16:39:12;10.23;;;4.63;;
6519;SDS011;3293;51.690;5.982;2023-03-23T16:44:12;9.77;;;4.53;;
6519;SDS011;3293;51.690;5.982;2023-03-23T16:49:12;9.47;;;4.67;;
6519;SDS011;3293;51.690;5.982;2023-03-23T16:54:12;7.57;;;3.70;;
6519;SDS011;3293;51.690;5.982;2023-03-23T16:59:12;9.27;;;4.80;;
6519;SDS011;3293;51.690;5.982;2023-03-23T17:04:12;10.70;;;4.17;;
6519;SDS011;3293;51.690;5.982;2023-03-23T17:09:14;9.23;;;3.43;;
6519;SDS011;3293;51.690;5.982;2023-03-23T17:14:14;7.83;;;4.23;;
6519;SDS011;3293;51.690;5.982;2023-03-23T17:19:14;10.23;;;4.50;;
6519;SDS011;3293;51.690;5.982;2023-03-23T17:24:14;7.37;;;4.07;;
6519;SDS011;3293;51.690;5.982;2023-03-23T17:29:14;10.13;;;4.60;;
6519;SDS011;3293;51.690;5.982;2023-03-23T17:34:15;11.00;;;4.50;;
6519;SDS011;3293;51.690;5.982;2023-03-23T17:39:16;10.03;;;4.00;;
6519;SDS011;3293;51.690;5.982;2023-03-23T17:44:16;8.33;;;4.43;;
6519;SDS011;3293;51.690;5.982;2023-03-23T17:49:16;8.60;;;4.60;;
6519;SDS011;3293;51.690;5.982;2023-03-23T17:54:18;9.10;;;4.33;;
6519;SDS011;3293;51.690;5.982;2023-03-23T17:59:18;8.03;;;4.20;;
6519;SDS011;3293;51.690;5.982;2023-03-23T18:04:18;10.87;;;4.57;;
6519;SDS011;3293;51.690;5.982;2023-03-23T18:09:18;8.60;;;4.80;;
6519;SDS011;3293;51.690;5.982;2023-03-23T18:14:19;8.20;;;4.60;;
6519;SDS011;3293;51.690;5.982;2023-03-23T18:19:19;9.80;;;4.77;;
6519;SDS011;3293;51.690;5.982;2023-03-23T18:24:19;11.03;;;4.10;;
6519;SDS011;3293;51.690;5.982;2023-03-23T18:29:19;16.40;;;6.10;;
6519;SDS011;3293;51.690;5.982;2023-03-23T18:34:19;13.53;;;5.00;;
6519;SDS011;3293;51.690;5.982;2023-03-23T18:39:19;11.93;;;5.23;;
6519;SDS011;3293;51.690;5.982;2023-03-23T18:44:19;12.77;;;4.40;;
6519;SDS011;3293;51.690;5.982;2023-03-23T18:49:19;9.10;;;4.30;;
6519;SDS011;3293;51.690;5.982;2023-03-23T18:54:19;8.97;;;4.27;;
6519;SDS011;3293;51.690;5.982;2023-03-23T18:59:20;6.40;;;4.07;;
6519;SDS011;3293;51.690;5.982;2023-03-23T19:04:22;9.73;;;4.07;;
6519;SDS011;3293;51.690;5.982;2023-03-23T19:09:22;10.57;;;4.93;;
6519;SDS011;3293;51.690;5.982;2023-03-23T19:14:22;9.90;;;4.33;;
6519;SDS011;3293;51.690;5.982;2023-03-23T19:19:22;6.70;;;4.00;;
6519;SDS011;3293;51.690;5.982;2023-03-23T19:24:22;10.33;;;4.30;;
6519;SDS011;3293;51.690;5.982;2023-03-23T19:29:24;8.37;;;4.00;;
6519;SDS011;3293;51.690;5.982;2023-03-23T19:34:25;9.97;;;4.30;;
6519;SDS011;3293;51.690;5.982;2023-03-23T19:39:26;6.20;;;3.67;;
6519;SDS011;3293;51.690;5.982;2023-03-23T19:44:26;10.23;;;4.23;;
6519;SDS011;3293;51.690;5.982;2023-03-23T19:49:26;12.77;;;4.03;;
6519;SDS011;3293;51.690;5.982;2023-03-23T19:54:26;8.60;;;4.47;;
6519;SDS011;3293;51.690;5.982;2023-03-23T19:59:26;8.63;;;3.47;;
6519;SDS011;3293;51.690;5.982;2023-03-23T20:04:26;7.73;;;3.40;;
6519;SDS011;3293;51.690;5.982;2023-03-23T20:09:26;6.57;;;3.77;;
6519;SDS011;3293;51.690;5.982;2023-03-23T20:14:26;7.30;;;3.67;;
6519;SDS011;3293;51.690;5.982;2023-03-23T20:19:26;7.27;;;3.70;;
6519;SDS011;3293;51.690;5.982;2023-03-23T20:24:26;6.57;;;3.50;;
6519;SDS011;3293;51.690;5.982;2023-03-23T20:29:26;8.63;;;3.73;;
6519;SDS011;3293;51.690;5.982;2023-03-23T20:34:29;6.57;;;3.70;;
6519;SDS011;3293;51.690;5.982;2023-03-23T20:39:30;6.67;;;3.70;;
6519;SDS011;3293;51.690;5.982;2023-03-23T20:44:31;7.70;;;3.57;;
6519;SDS011;3293;51.690;5.982;2023-03-23T20:49:34;6.83;;;3.67;;
6519;SDS011;3293;51.690;5.982;2023-03-23T20:54:36;6.80;;;3.57;;
6519;SDS011;3293;51.690;5.982;2023-03-23T20:59:36;7.37;;;4.00;;
6519;SDS011;3293;51.690;5.982;2023-03-23T21:04:36;9.93;;;3.90;;
6519;SDS011;3293;51.690;5.982;2023-03-23T21:09:38;10.37;;;3.43;;
6519;SDS011;3293;51.690;5.982;2023-03-23T21:14:39;5.53;;;3.37;;
6519;SDS011;3293;51.690;5.982;2023-03-23T21:19:39;6.80;;;3.90;;
6519;SDS011;3293;51.690;5.982;2023-03-23T21:24:39;9.47;;;3.63;;
6519;SDS011;3293;51.690;5.982;2023-03-23T21:29:39;5.80;;;3.80;;
6519;SDS011;3293;51.690;5.982;2023-03-23T21:34:39;5.90;;;3.33;;
6519;SDS011;3293;51.690;5.982;2023-03-23T21:39:41;6.43;;;3.70;;
6519;SDS011;3293;51.690;5.982;2023-03-23T21:44:41;10.03;;;3.50;;
6519;SDS011;3293;51.690;5.982;2023-03-23T21:49:42;6.23;;;3.40;;
6519;SDS011;3293;51.690;5.982;2023-03-23T21:54:44;7.10;;;3.10;;
6519;SDS011;3293;51.690;5.982;2023-03-23T21:59:44;5.33;;;3.47;;
6519;SDS011;3293;51.690;5.982;2023-03-23T22:04:44;7.53;;;3.57;;
6519;SDS011;3293;51.690;5.982;2023-03-23T22:09:44;9.83;;;3.53;;
6519;SDS011;3293;51.690;5.982;2023-03-23T22:14:44;7.30;;;3.10;;
6519;SDS011;3293;51.690;5.982;2023-03-23T22:19:44;7.27;;;3.40;;
6519;SDS011;3293;51.690;5.982;2023-03-23T22:24:44;4.33;;;2.80;;
6519;SDS011;3293;51.690;5.982;2023-03-23T22:29:44;6.27;;;3.53;;
6519;SDS011;3293;51.690;5.982;2023-03-23T22:34:44;7.67;;;3.40;;
6519;SDS011;3293;51.690;5.982;2023-03-23T22:39:45;10.67;;;3.53;;
6519;SDS011;3293;51.690;5.982;2023-03-23T22:44:45;8.50;;;3.40;;
6519;SDS011;3293;51.690;5.982;2023-03-23T22:49:45;9.00;;;4.20;;
6519;SDS011;3293;51.690;5.982;2023-03-23T22:54:45;5.60;;;3.47;;
6519;SDS011;3293;51.690;5.982;2023-03-23T22:59:46;6.30;;;3.57;;
6519;SDS011;3293;51.690;5.982;2023-03-23T23:04:47;7.27;;;3.50;;
6519;SDS011;3293;51.690;5.982;2023-03-23T23:09:47;9.90;;;4.03;;
6519;SDS011;3293;51.690;5.982;2023-03-23T23:14:46;6.07;;;3.60;;
6519;SDS011;3293;51.690;5.982;2023-03-23T23:19:46;5.43;;;3.20;;
6519;SDS011;3293;51.690;5.982;2023-03-23T23:24:46;6.77;;;4.00;;
6519;SDS011;3293;51.690;5.982;2023-03-23T23:29:46;8.67;;;4.10;;
6519;SDS011;3293;51.690;5.982;2023-03-23T23:34:46;5.97;;;3.77;;
6519;SDS011;3293;51.690;5.982;2023-03-23T23:39:46;6.27;;;3.73;;
6519;SDS011;3293;51.690;5.982;2023-03-23T23:44:46;5.60;;;3.57;;
6519;SDS011;3293;51.690;5.982;2023-03-23T23:49:46;6.87;;;4.03;;
6519;SDS011;3293;51.690;5.982;2023-03-23T23:54:47;9.00;;;4.17;;
6519;SDS011;3293;51.690;5.982;2023-03-23T23:59:47;5.10;;;3.90;;
